createdAt,value
2024-04-14T00:00:06.743Z,100409.63
2024-04-14T00:10:13.497Z,100389.41
2024-04-14T00:20:15.591Z,100379.41
2024-04-14T00:30:17.837Z,100380.28
2024-04-14T00:40:20.623Z,100365.91
2024-04-14T00:50:23.744Z,100345.69
2024-04-14T01:00:27.283Z,100351.69
2024-04-14T01:10:31.006Z,100332.25
2024-04-14T01:20:32.969Z,100322.97
2024-04-14T01:30:35.127Z,100314.53
2024-04-14T01:40:37.107Z,100305.31
2024-04-14T01:50:39.188Z,100303.63
2024-04-14T02:00:41.232Z,100301.94
2024-04-14T02:10:43.359Z,100291.84
2024-04-14T02:20:45.235Z,100294.31
2024-04-14T02:30:47.379Z,100270.72
2024-04-14T02:41:09.421Z,100285.94
2024-04-14T02:51:11.338Z,100274.13
2024-04-14T03:01:15.920Z,100235.25
2024-04-14T03:11:18.156Z,100252.19
2024-04-14T03:21:23.674Z,100256.41
2024-04-14T03:31:26.444Z,100236.13
2024-04-14T03:41:28.627Z,100237.84
2024-04-14T03:51:32.411Z,100254.72
2024-04-14T04:01:34.540Z,100247.13
2024-04-14T04:11:36.756Z,100245.44
2024-04-14T04:21:38.954Z,100236.13
2024-04-14T04:31:41.099Z,100246.19
2024-04-14T04:41:43.148Z,100241.13
2024-04-14T04:51:45.070Z,100243.69
2024-04-14T05:01:47.150Z,100214.97
2024-04-14T05:11:49.183Z,100229.38
2024-04-14T05:21:51.205Z,100211.59
2024-04-14T05:31:53.565Z,100229.31
2024-04-14T05:41:56.629Z,100238.66
2024-04-14T05:51:59.022Z,100251.31
2024-04-14T06:02:01.197Z,100247.88
2024-04-14T06:12:03.054Z,100251.00
2024-04-14T06:22:05.026Z,100233.69
2024-04-14T06:32:07.236Z,100231.97
2024-04-14T06:42:11.004Z,100204.97
2024-04-14T06:52:13.992Z,100240.31
2024-04-14T07:02:15.913Z,100237.13
2024-04-14T07:12:17.857Z,100231.34
2024-04-14T07:22:19.936Z,100238.94
2024-04-14T07:32:21.953Z,100238.16
2024-04-14T07:42:24.058Z,100236.06
2024-04-14T07:52:25.877Z,100231.53
2024-04-14T08:02:28.162Z,100224.88
2024-04-14T08:12:30.015Z,100212.91
2024-04-14T08:22:32.059Z,100209.19
2024-04-14T08:32:34.204Z,100203.34
2024-04-14T08:42:37.025Z,100196.97
2024-04-14T08:52:42.800Z,100195.56
2024-04-14T09:02:47.016Z,100183.25
2024-04-14T09:12:49.224Z,100168.44
2024-04-14T09:22:51.324Z,100164.66
2024-04-14T09:32:54.196Z,100151.66
2024-04-14T09:42:59.416Z,100131.94
2024-04-14T09:53:04.178Z,100124.56
2024-04-14T10:03:09.755Z,100120.31
2024-04-14T10:13:14.254Z,100108.66
2024-04-14T10:23:20.687Z,100090.97
2024-04-14T10:33:23.229Z,100094.81
2024-04-14T10:43:26.413Z,100084.13
2024-04-14T10:53:30.099Z,100075.59
2024-04-14T11:03:32.351Z,100059.19
2024-04-14T11:13:34.468Z,100065.09
2024-04-14T11:23:36.282Z,100050.50
2024-04-14T11:33:43.273Z,100035.47
2024-04-14T11:43:46.418Z,100046.31
2024-04-14T11:53:48.417Z,100028.09
2024-04-14T12:03:50.451Z,99990.78
2024-04-14T12:13:53.877Z,100005.63
2024-04-14T12:23:57.939Z,99985.97
2024-04-14T12:33:59.969Z,99984.03
2024-04-14T12:44:01.979Z,99982.97
2024-04-14T12:54:03.806Z,99956.97
2024-04-14T13:04:05.892Z,99941.03
2024-04-14T13:14:07.907Z,99941.06
2024-04-14T13:24:10.166Z,99889.09
2024-04-14T13:34:12.149Z,99886.69
2024-04-14T13:44:14.183Z,99890.44
2024-04-14T13:54:16.016Z,99881.94
2024-04-14T14:04:21.262Z,99877.88
2024-04-14T14:14:25.308Z,99870.34
2024-04-14T14:24:27.378Z,99865.63
2024-04-14T14:34:47.643Z,99861.75
2024-04-14T14:44:50.086Z,99855.66
2024-04-14T14:54:53.668Z,99798.53
2024-04-14T15:04:55.812Z,99843.66
2024-04-14T15:14:57.761Z,99836.09
2024-04-14T15:24:59.829Z,99810.56
2024-04-14T15:35:01.744Z,99818.56
2024-04-14T15:45:04.175Z,99789.84
2024-04-14T15:55:06.264Z,99799.75
2024-04-14T16:05:08.328Z,99800.13
2024-04-14T16:15:10.381Z,99842.25
2024-04-14T16:35:17.224Z,99852.13
2024-04-14T16:45:19.382Z,99857.31
2024-04-14T16:55:21.571Z,99838.66
2024-04-14T17:05:24.162Z,99833.16
2024-04-14T17:15:27.434Z,99827.78
2024-04-14T17:25:29.466Z,99828.50
2024-04-14T17:35:31.272Z,99831.53
2024-04-14T17:45:33.096Z,99841.19
2024-04-14T17:55:34.768Z,99843.41
2024-04-14T18:05:36.568Z,99837.78
2024-04-14T18:15:38.619Z,99830.44
2024-04-14T18:25:40.709Z,99824.53
2024-04-14T18:35:42.736Z,99825.59
2024-04-14T18:45:59.410Z,99838.53
2024-04-14T18:56:05.807Z,99836.41
2024-04-14T19:06:12.756Z,99843.63
2024-04-14T19:16:15.931Z,99835.44
2024-04-14T19:26:19.952Z,99833.72
2024-04-14T19:36:21.944Z,99832.91
2024-04-14T19:46:24.013Z,99821.53
2024-04-14T19:56:26.145Z,99811.50
2024-04-14T20:06:28.112Z,99809.81
2024-04-14T20:16:34.425Z,99800.63
2024-04-14T20:26:36.553Z,99793.59
2024-04-14T20:36:38.887Z,99786.44
2024-04-14T20:46:40.688Z,99795.78
2024-04-14T20:56:42.553Z,99787.31
2024-04-14T21:06:45.744Z,99775.72
2024-04-14T21:16:47.779Z,99774.72
2024-04-14T21:26:49.705Z,99765.44
2024-04-14T21:36:51.727Z,99741.88
2024-04-14T21:46:53.779Z,99760.09
2024-04-14T21:56:55.856Z,99745.81
2024-04-14T22:06:57.689Z,99736.19
2024-04-14T22:16:59.894Z,99709.75
2024-04-14T22:27:02.506Z,99691.41
2024-04-14T22:37:04.600Z,99680.91
2024-04-14T22:47:06.542Z,99673.56
2024-04-14T22:57:08.543Z,99655.69
2024-04-14T23:07:10.656Z,99642.78
2024-04-14T23:17:12.614Z,99630.22
2024-04-14T23:27:14.662Z,99619.72
2024-04-14T23:37:16.738Z,99609.97
2024-04-14T23:47:18.870Z,99587.78
2024-04-14T23:57:20.735Z,99593.78
